Time;durP1;ratioP1;P1;durP2;ratioP2;P2;SDS_P1;SDS_P2;PMS_P1;PMS_P2;Temp;Humidity;BMP_temperature;BMP_pressure;BME280_temperature;BME280_humidity;BME280_pressure;Samples;Min_cycle;Max_cycle;Signal;HPM_P1;HPM_P2
2022/04/18 00:02:18;;;;;;;5.85;3.40;;;;;;;;;;5026951;28;20037;-70
2022/04/18 00:04:44;;;;;;;6.45;3.63;;;;;;;;;;5026829;28;20018;-72
2022/04/18 00:07:10;;;;;;;7.25;3.63;;;;;;;;;;5025364;28;20426;-71
2022/04/18 00:09:37;;;;;;;6.57;3.60;;;;;;;;;;5025837;28;20017;-71
2022/04/18 00:12:03;;;;;;;3.65;3.17;;;;;;;;;;5025581;28;20033;-72
2022/04/18 00:14:30;;;;;;;6.70;3.92;;;;;;;;;;5027219;28;20024;-71
2022/04/18 00:16:56;;;;;;;5.57;3.63;;;;;;;;;;5026415;28;20495;-71
2022/04/18 00:19:23;;;;;;;7.07;3.97;;;;;;;;;;5021201;28;20018;-71
2022/04/18 00:21:49;;;;;;;6.30;4.43;;;;;;;;;;5012014;28;20302;-71
2022/04/18 00:24:17;;;;;;;6.25;3.95;;;;;;;;;;5007422;28;20018;-70
2022/04/18 00:26:43;;;;;;;9.15;4.15;;;;;;;;;;5007126;28;20529;-70
2022/04/18 00:29:10;;;;;;;9.45;4.63;;;;;;;;;;5007010;28;20498;-70
2022/04/18 00:31:36;;;;;;;9.23;4.70;;;;;;;;;;5006580;28;20087;-70
2022/04/18 00:34:02;;;;;;;8.68;4.57;;;;;;;;;;5008205;28;20025;-70
2022/04/18 00:36:28;;;;;;;9.77;5.10;;;;;;;;;;5006846;28;20021;-71
2022/04/18 00:38:54;;;;;;;9.65;5.15;;;;;;;;;;5007394;28;20053;-70
2022/04/18 00:41:20;;;;;;;7.47;4.70;;;;;;;;;;5007678;28;20509;-70
2022/04/18 00:43:48;;;;;;;8.77;4.80;;;;;;;;;;5007321;28;20048;-70
2022/04/18 00:46:15;;;;;;;9.20;4.97;;;;;;;;;;5006244;28;20427;-70
2022/04/18 00:48:42;;;;;;;9.98;4.57;;;;;;;;;;5006655;28;20084;-71
2022/04/18 00:51:10;;;;;;;10.73;4.88;;;;;;;;;;5011463;28;20040;-71
2022/04/18 00:53:37;;;;;;;9.90;5.68;;;;;;;;;;5002912;28;20030;-71
2022/04/18 00:56:04;;;;;;;13.85;5.68;;;;;;;;;;5011643;28;20041;-71
2022/04/18 00:58:31;;;;;;;15.95;7.07;;;;;;;;;;5002105;28;20042;-72
2022/04/18 01:00:57;;;;;;;11.25;5.20;;;;;;;;;;5001994;28;20034;-72
2022/04/18 01:03:23;;;;;;;12.93;5.95;;;;;;;;;;5003424;28;20026;-71
2022/04/18 01:05:50;;;;;;;11.25;5.53;;;;;;;;;;5011881;28;20030;-73
2022/04/18 01:08:16;;;;;;;10.18;5.30;;;;;;;;;;5000756;28;20108;-72
2022/04/18 01:10:44;;;;;;;12.15;5.90;;;;;;;;;;5002033;28;20022;-72
2022/04/18 01:13:10;;;;;;;10.57;6.03;;;;;;;;;;5011889;28;20021;-70
2022/04/18 01:15:36;;;;;;;13.30;6.65;;;;;;;;;;5003957;28;20045;-71
2022/04/18 01:18:02;;;;;;;9.40;6.28;;;;;;;;;;5009773;28;20041;-73
2022/04/18 01:20:34;;;;;;;9.65;5.72;;;;;;;;;;5008721;28;20482;-71
2022/04/18 01:23:01;;;;;;;10.75;5.75;;;;;;;;;;5020474;28;20044;-71
2022/04/18 01:30:57;;;;;;;7.57;4.80;;;;;;;;;;5007984;28;20747;-71
2022/04/18 01:33:24;;;;;;;9.85;4.90;;;;;;;;;;5008618;28;20037;-71
2022/04/18 01:35:50;;;;;;;9.15;4.57;;;;;;;;;;5016207;28;20470;-71
2022/04/18 01:38:16;;;;;;;6.03;4.20;;;;;;;;;;5025831;28;20404;-71
2022/04/18 01:40:42;;;;;;;8.52;4.65;;;;;;;;;;5021103;28;20030;-72
2022/04/18 01:43:08;;;;;;;7.22;4.30;;;;;;;;;;5011148;28;20099;-70
2022/04/18 01:45:34;;;;;;;8.82;4.82;;;;;;;;;;5016628;28;20025;-72
2022/04/18 01:48:01;;;;;;;7.55;4.25;;;;;;;;;;5008229;28;20044;-70
2022/04/18 01:50:27;;;;;;;8.57;4.20;;;;;;;;;;5012852;28;20813;-71
2022/04/18 01:52:53;;;;;;;7.10;4.35;;;;;;;;;;5020252;28;20033;-71
2022/04/18 01:55:20;;;;;;;8.48;4.65;;;;;;;;;;5020769;28;20025;-70
2022/04/18 01:57:46;;;;;;;8.35;4.25;;;;;;;;;;5012134;28;20113;-71
2022/04/18 02:00:12;;;;;;;10.02;4.53;;;;;;;;;;5017666;28;20033;-70
2022/04/18 02:02:38;;;;;;;8.18;4.20;;;;;;;;;;5007252;28;20042;-71
2022/04/18 02:05:07;;;;;;;6.90;4.50;;;;;;;;;;5006519;28;20056;-73
2022/04/18 02:07:33;;;;;;;9.15;4.90;;;;;;;;;;5005195;28;20029;-70
2022/04/18 02:09:59;;;;;;;12.07;4.95;;;;;;;;;;5017087;28;20104;-71
2022/04/18 02:12:26;;;;;;;13.35;4.13;;;;;;;;;;5009061;28;20038;-71
2022/04/18 02:14:52;;;;;;;11.13;5.03;;;;;;;;;;5015371;28;20025;-72
2022/04/18 02:17:18;;;;;;;8.75;4.35;;;;;;;;;;5022022;28;20030;-71
2022/04/18 02:19:45;;;;;;;10.38;4.05;;;;;;;;;;5020576;28;20033;-71
2022/04/18 02:22:12;;;;;;;8.50;4.18;;;;;;;;;;5025450;28;20100;-70
2022/04/18 02:24:39;;;;;;;7.72;4.22;;;;;;;;;;5018889;28;20564;-71
2022/04/18 02:27:06;;;;;;;9.13;4.82;;;;;;;;;;5010857;28;20029;-73
2022/04/18 02:29:33;;;;;;;9.02;4.10;;;;;;;;;;5014090;28;20519;-71
2022/04/18 02:34:44;;;;;;;7.82;4.00;;;;;;;;;;5009282;28;20141;-71
2022/04/18 02:37:10;;;;;;;10.30;4.63;;;;;;;;;;5013646;28;20036;-71
2022/04/18 02:39:36;;;;;;;10.00;4.22;;;;;;;;;;5005805;28;20085;-71
2022/04/18 02:42:03;;;;;;;7.97;4.38;;;;;;;;;;5006854;28;20477;-71
2022/04/18 02:44:29;;;;;;;9.48;4.80;;;;;;;;;;5012604;28;20528;-70
2022/04/18 02:46:55;;;;;;;7.18;4.20;;;;;;;;;;5004225;28;20037;-71
2022/04/18 02:49:21;;;;;;;9.52;4.25;;;;;;;;;;5016111;28;20036;-71
2022/04/18 02:51:48;;;;;;;8.82;4.68;;;;;;;;;;5013122;28;20417;-72
2022/04/18 02:54:14;;;;;;;9.40;4.45;;;;;;;;;;5010634;28;20032;-71
2022/04/18 02:56:40;;;;;;;14.93;4.90;;;;;;;;;;5012586;28;20029;-70
2022/04/18 02:59:06;;;;;;;9.25;5.28;;;;;;;;;;5010687;28;20397;-71
2022/04/18 03:01:32;;;;;;;8.18;4.22;;;;;;;;;;5007713;28;20050;-71
2022/04/18 03:03:58;;;;;;;8.82;4.82;;;;;;;;;;5008517;28;20030;-71
2022/04/18 03:06:24;;;;;;;8.63;4.53;;;;;;;;;;5012974;28;20025;-71
2022/04/18 03:08:50;;;;;;;9.02;4.15;;;;;;;;;;5008947;28;20025;-70
2022/04/18 03:11:17;;;;;;;8.90;4.28;;;;;;;;;;5015288;28;20021;-70
2022/04/18 03:13:47;;;;;;;10.45;4.85;;;;;;;;;;5018847;28;20386;-71
2022/04/18 03:16:13;;;;;;;11.40;4.85;;;;;;;;;;5012970;28;20493;-70
2022/04/18 03:18:40;;;;;;;8.57;4.53;;;;;;;;;;5018104;28;20030;-72
2022/04/18 03:21:07;;;;;;;10.40;4.70;;;;;;;;;;5009580;28;20046;-71
2022/04/18 03:23:33;;;;;;;7.82;4.15;;;;;;;;;;5005893;28;20029;-71
2022/04/18 03:25:59;;;;;;;7.88;4.32;;;;;;;;;;5007182;28;20044;-72
2022/04/18 03:28:26;;;;;;;13.38;4.28;;;;;;;;;;5009470;28;20030;-71
2022/04/18 03:30:52;;;;;;;10.35;4.35;;;;;;;;;;5002050;28;20083;-76
2022/04/18 03:33:19;;;;;;;8.57;4.68;;;;;;;;;;5008034;28;20026;-72
2022/04/18 03:41:18;;;;;;;11.75;4.40;;;;;;;;;;5003328;28;20125;-74
2022/04/18 03:43:44;;;;;;;11.65;4.78;;;;;;;;;;5005646;28;20044;-71
2022/04/18 03:46:11;;;;;;;9.77;4.05;;;;;;;;;;5006531;28;20504;-71
2022/04/18 03:48:37;;;;;;;11.27;4.43;;;;;;;;;;5015215;28;20104;-71
2022/04/18 03:51:03;;;;;;;10.75;4.68;;;;;;;;;;5006728;28;20034;-72
2022/04/18 03:53:29;;;;;;;12.45;5.13;;;;;;;;;;5007067;28;20037;-70
2022/04/18 03:55:55;;;;;;;9.98;4.72;;;;;;;;;;5006068;28;20025;-73
2022/04/18 03:58:22;;;;;;;8.60;5.03;;;;;;;;;;5004888;28;20033;-71
2022/04/18 04:00:48;;;;;;;10.25;4.47;;;;;;;;;;5002352;28;20029;-72
2022/04/18 04:03:14;;;;;;;14.93;4.85;;;;;;;;;;5012428;28;20040;-73
2022/04/18 04:05:40;;;;;;;9.40;4.40;;;;;;;;;;5003195;28;20029;-71
2022/04/18 04:08:06;;;;;;;9.43;4.47;;;;;;;;;;5014076;28;20021;-72
2022/04/18 04:10:33;;;;;;;9.07;4.95;;;;;;;;;;5006412;28;20034;-71
2022/04/18 04:12:59;;;;;;;12.05;4.75;;;;;;;;;;5000312;28;20033;-71
2022/04/18 04:15:25;;;;;;;9.15;4.40;;;;;;;;;;5002129;28;20050;-71
2022/04/18 04:17:52;;;;;;;10.73;5.30;;;;;;;;;;5004789;28;20034;-71
2022/04/18 04:20:19;;;;;;;7.90;4.45;;;;;;;;;;5000351;28;20026;-76
2022/04/18 04:22:51;;;;;;;7.93;4.30;;;;;;;;;;4999658;28;20125;-71
2022/04/18 04:25:17;;;;;;;9.05;4.43;;;;;;;;;;4999774;28;20104;-70
2022/04/18 04:27:44;;;;;;;5.78;3.90;;;;;;;;;;4998565;28;20038;-72
2022/04/18 04:30:10;;;;;;;9.25;4.25;;;;;;;;;;5000248;28;20054;-71
2022/04/18 04:32:36;;;;;;;16.00;4.03;;;;;;;;;;4999861;28;20498;-71
2022/04/18 04:35:02;;;;;;;11.52;4.93;;;;;;;;;;5000026;28;20042;-71
2022/04/18 04:37:29;;;;;;;9.38;4.07;;;;;;;;;;4997104;28;20029;-71
2022/04/18 04:39:55;;;;;;;9.43;3.97;;;;;;;;;;5012446;28;20044;-73
2022/04/18 04:42:21;;;;;;;9.15;4.20;;;;;;;;;;5019701;28;20034;-71
2022/04/18 04:44:47;;;;;;;10.73;4.70;;;;;;;;;;5019639;28;20704;-71
2022/04/18 04:47:13;;;;;;;10.27;5.05;;;;;;;;;;5018057;28;20033;-71
2022/04/18 04:49:39;;;;;;;12.25;4.10;;;;;;;;;;5019441;28;20729;-73
2022/04/18 04:52:06;;;;;;;10.93;4.25;;;;;;;;;;5019821;28;20033;-71
2022/04/18 04:54:33;;;;;;;7.75;4.60;;;;;;;;;;5019777;28;20536;-72
2022/04/18 04:56:59;;;;;;;8.68;4.28;;;;;;;;;;5019293;28;20116;-71
2022/04/18 04:59:25;;;;;;;12.00;4.18;;;;;;;;;;5017510;28;20468;-71
2022/04/18 05:01:51;;;;;;;11.45;5.78;;;;;;;;;;5023243;28;20029;-71
2022/04/18 05:04:17;;;;;;;10.10;4.03;;;;;;;;;;5012673;28;20099;-72
2022/04/18 05:06:44;;;;;;;9.68;4.93;;;;;;;;;;5018782;28;20418;-72
2022/04/18 05:09:10;;;;;;;12.38;4.63;;;;;;;;;;5014159;28;20060;-71
2022/04/18 05:11:37;;;;;;;7.68;4.32;;;;;;;;;;5003795;28;20687;-71
2022/04/18 05:14:03;;;;;;;6.85;4.50;;;;;;;;;;5004377;28;20030;-72
2022/04/18 05:16:29;;;;;;;8.15;4.60;;;;;;;;;;5021652;28;20390;-71
2022/04/18 05:18:55;;;;;;;10.27;4.50;;;;;;;;;;5021819;28;20458;-71
2022/04/18 05:21:21;;;;;;;14.52;4.40;;;;;;;;;;5022847;28;20091;-71
2022/04/18 05:23:48;;;;;;;6.38;3.72;;;;;;;;;;5022663;28;20029;-72
2022/04/18 05:26:14;;;;;;;9.52;3.70;;;;;;;;;;5022750;28;20029;-72
2022/04/18 05:28:41;;;;;;;8.25;4.22;;;;;;;;;;5018906;28;20029;-71
2022/04/18 05:31:08;;;;;;;11.43;4.45;;;;;;;;;;5001481;28;20022;-71
2022/04/18 05:33:34;;;;;;;5.95;4.00;;;;;;;;;;5002932;28;20486;-71
2022/04/18 05:36:00;;;;;;;7.28;4.00;;;;;;;;;;5003431;28;20037;-71
2022/04/18 05:38:26;;;;;;;10.73;3.78;;;;;;;;;;5006665;28;20079;-71
2022/04/18 05:40:52;;;;;;;6.72;3.78;;;;;;;;;;5022308;28;20112;-71
2022/04/18 05:43:18;;;;;;;9.50;4.30;;;;;;;;;;5022696;28;20033;-71
2022/04/18 05:45:48;;;;;;;8.05;3.72;;;;;;;;;;5020044;28;20029;-71
2022/04/18 05:48:14;;;;;;;6.85;3.80;;;;;;;;;;5021418;28;20037;-71
2022/04/18 05:50:45;;;;;;;10.48;3.53;;;;;;;;;;5022205;28;20022;-72
2022/04/18 05:53:11;;;;;;;7.40;3.97;;;;;;;;;;5008277;28;20034;-71
2022/04/18 05:55:37;;;;;;;8.25;4.05;;;;;;;;;;5002879;28;20504;-71
2022/04/18 05:58:04;;;;;;;7.55;4.10;;;;;;;;;;5001131;28;20034;-70
2022/04/18 06:00:32;;;;;;;10.35;3.90;;;;;;;;;;5001903;28;20022;-74
2022/04/18 06:02:59;;;;;;;9.48;4.00;;;;;;;;;;5001176;28;20042;-71
2022/04/18 06:05:25;;;;;;;9.48;4.32;;;;;;;;;;5000374;28;20022;-71
2022/04/18 06:07:51;;;;;;;11.98;5.22;;;;;;;;;;5000791;28;20052;-71
2022/04/18 06:10:17;;;;;;;9.35;4.55;;;;;;;;;;5001585;28;20022;-71
2022/04/18 06:12:43;;;;;;;12.63;4.40;;;;;;;;;;5003696;28;20849;-71
2022/04/18 06:15:10;;;;;;;11.20;4.88;;;;;;;;;;5021397;28;20042;-71
2022/04/18 06:17:36;;;;;;;12.75;4.35;;;;;;;;;;5020307;28;20029;-71
2022/04/18 06:20:03;;;;;;;9.93;4.93;;;;;;;;;;5022159;28;20048;-71
2022/04/18 06:22:29;;;;;;;12.80;5.05;;;;;;;;;;5021984;28;20193;-71
2022/04/18 06:24:55;;;;;;;10.00;4.20;;;;;;;;;;5020411;28;20024;-71
2022/04/18 06:27:21;;;;;;;9.40;4.20;;;;;;;;;;5021547;28;20026;-71
2022/04/18 06:29:48;;;;;;;8.68;4.25;;;;;;;;;;5021516;28;20091;-71
2022/04/18 06:32:14;;;;;;;8.85;4.80;;;;;;;;;;5021860;28;20048;-71
2022/04/18 06:34:40;;;;;;;12.07;4.80;;;;;;;;;;5021923;28;20178;-71
2022/04/18 06:37:06;;;;;;;11.98;4.57;;;;;;;;;;5016831;28;20025;-71
2022/04/18 06:39:33;;;;;;;15.13;4.25;;;;;;;;;;5021476;28;20041;-71
2022/04/18 06:42:00;;;;;;;9.60;4.30;;;;;;;;;;5021101;28;20033;-71
2022/04/18 06:44:26;;;;;;;7.60;3.08;;;;;;;;;;5021619;28;20577;-71
2022/04/18 06:46:52;;;;;;;9.35;3.70;;;;;;;;;;5021689;28;20037;-71
2022/04/18 06:49:18;;;;;;;9.38;3.47;;;;;;;;;;5020103;28;20049;-71
2022/04/18 06:51:44;;;;;;;6.65;3.28;;;;;;;;;;5021197;28;20037;-71
2022/04/18 06:54:10;;;;;;;12.38;2.85;;;;;;;;;;5021177;28;20366;-71
2022/04/18 06:59:22;;;;;;;8.93;3.10;;;;;;;;;;5021694;28;20565;-72
2022/04/18 07:01:48;;;;;;;5.78;3.05;;;;;;;;;;5021146;28;20080;-71
2022/04/18 07:04:14;;;;;;;7.47;2.92;;;;;;;;;;5020079;28;20109;-71
2022/04/18 07:06:40;;;;;;;8.00;3.58;;;;;;;;;;5013424;28;20080;-71
2022/04/18 07:09:07;;;;;;;4.25;2.83;;;;;;;;;;5001346;28;20029;-71
2022/04/18 07:11:34;;;;;;;7.25;2.83;;;;;;;;;;5001363;28;20030;-71
2022/04/18 07:14:00;;;;;;;6.85;3.15;;;;;;;;;;5001640;28;20608;-71
2022/04/18 07:16:29;;;;;;;6.22;3.40;;;;;;;;;;4999430;28;20108;-71
2022/04/18 07:18:56;;;;;;;7.20;3.17;;;;;;;;;;5003363;28;20026;-71
2022/04/18 07:21:22;;;;;;;7.38;3.17;;;;;;;;;;5020534;28;20033;-71
2022/04/18 07:23:48;;;;;;;5.88;2.85;;;;;;;;;;5021066;28;20022;-71
2022/04/18 07:26:15;;;;;;;6.60;2.50;;;;;;;;;;5014254;28;20141;-71
2022/04/18 07:28:41;;;;;;;5.63;2.90;;;;;;;;;;5000725;28;20022;-71
2022/04/18 07:31:08;;;;;;;6.43;3.03;;;;;;;;;;5000957;28;20364;-72
2022/04/18 07:33:34;;;;;;;12.68;2.95;;;;;;;;;;5000825;28;20139;-71
2022/04/18 07:36:00;;;;;;;7.47;3.40;;;;;;;;;;5000169;28;20033;-71
2022/04/18 07:41:12;;;;;;;7.45;2.97;;;;;;;;;;5039472;28;20032;-71
2022/04/18 07:43:38;;;;;;;5.57;2.83;;;;;;;;;;5037477;28;20024;-72
2022/04/18 07:46:04;;;;;;;6.50;2.95;;;;;;;;;;5001796;28;20026;-71
2022/04/18 07:48:33;;;;;;;6.43;3.00;;;;;;;;;;5000780;28;20026;-71
2022/04/18 07:53:44;;;;;;;6.38;2.60;;;;;;;;;;5020424;28;20047;-71
2022/04/18 07:56:10;;;;;;;6.82;3.15;;;;;;;;;;5016081;28;20033;-71
2022/04/18 07:58:37;;;;;;;7.78;2.70;;;;;;;;;;5002839;28;20030;-71
2022/04/18 08:01:03;;;;;;;8.20;3.10;;;;;;;;;;5000454;28;20662;-72
2022/04/18 08:03:29;;;;;;;8.63;3.00;;;;;;;;;;5000766;28;20029;-72
2022/04/18 08:05:56;;;;;;;7.25;2.80;;;;;;;;;;5005200;28;20030;-72
2022/04/18 08:08:22;;;;;;;6.55;2.95;;;;;;;;;;5018681;28;20520;-71
2022/04/18 08:10:48;;;;;;;6.13;2.60;;;;;;;;;;5009869;28;20030;-71
2022/04/18 08:13:15;;;;;;;4.80;2.60;;;;;;;;;;5004573;28;20030;-71
2022/04/18 08:15:41;;;;;;;7.05;3.35;;;;;;;;;;5015017;28;20214;-71
2022/04/18 08:18:07;;;;;;;9.18;3.08;;;;;;;;;;5011549;28;20036;-71
2022/04/18 08:20:33;;;;;;;7.35;2.92;;;;;;;;;;5002859;28;20033;-72
2022/04/18 08:22:59;;;;;;;5.95;2.60;;;;;;;;;;5014051;28;20056;-70
2022/04/18 08:25:26;;;;;;;4.90;2.53;;;;;;;;;;5018832;28;20032;-71
2022/04/18 08:27:52;;;;;;;5.85;2.80;;;;;;;;;;5012467;28;20680;-75
2022/04/18 08:30:18;;;;;;;5.53;2.28;;;;;;;;;;5018840;28;20507;-71
2022/04/18 08:32:44;;;;;;;5.97;2.50;;;;;;;;;;5019619;28;20029;-71
2022/04/18 08:35:11;;;;;;;13.95;3.15;;;;;;;;;;5008568;28;20513;-72
2022/04/18 08:37:37;;;;;;;7.03;2.72;;;;;;;;;;4999372;28;20022;-70
2022/04/18 08:40:08;;;;;;;6.70;2.72;;;;;;;;;;5003119;28;20113;-71
2022/04/18 08:42:35;;;;;;;5.30;2.30;;;;;;;;;;4998377;28;20049;-71
2022/04/18 08:45:05;;;;;;;5.25;3.05;;;;;;;;;;5000391;28;20022;-71
2022/04/18 08:53:02;;;;;;;5.13;2.55;;;;;;;;;;5009924;28;20091;-70
2022/04/18 08:55:30;;;;;;;7.80;3.22;;;;;;;;;;4998188;28;20049;-71
2022/04/18 08:57:56;;;;;;;4.07;2.60;;;;;;;;;;4997317;28;20037;-71
2022/04/18 09:00:23;;;;;;;5.15;2.70;;;;;;;;;;4999330;28;20050;-70
2022/04/18 09:02:49;;;;;;;4.22;2.60;;;;;;;;;;5000598;28;20042;-70
2022/04/18 09:05:15;;;;;;;5.68;3.20;;;;;;;;;;5011843;28;20091;-71
2022/04/18 09:07:42;;;;;;;6.85;3.67;;;;;;;;;;5016769;28;20044;-71
2022/04/18 09:10:09;;;;;;;11.43;3.33;;;;;;;;;;5019110;28;20100;-71
2022/04/18 09:12:35;;;;;;;8.43;3.10;;;;;;;;;;5010237;28;20030;-70
2022/04/18 09:15:01;;;;;;;7.10;2.70;;;;;;;;;;4999412;28;20065;-71
2022/04/18 09:17:31;;;;;;;4.65;2.63;;;;;;;;;;5011067;28;20034;-71
2022/04/18 09:20:07;;;;;;;6.20;2.95;;;;;;;;;;4997456;28;20053;-73
2022/04/18 09:22:46;;;;;;;8.73;4.10;;;;;;;;;;5018399;28;20100;-71
2022/04/18 09:25:13;;;;;;;7.50;3.70;;;;;;;;;;5017002;28;20026;-71
2022/04/18 09:27:40;;;;;;;5.93;3.30;;;;;;;;;;5016868;28;20033;-71
2022/04/18 09:30:07;;;;;;;7.15;3.40;;;;;;;;;;5007647;28;20022;-70
2022/04/18 09:32:33;;;;;;;6.30;2.90;;;;;;;;;;5015574;28;20033;-71
2022/04/18 09:35:01;;;;;;;5.00;2.95;;;;;;;;;;5017494;28;20052;-71
2022/04/18 09:37:28;;;;;;;5.53;3.10;;;;;;;;;;5018774;28;20370;-71
2022/04/18 09:39:55;;;;;;;7.82;2.90;;;;;;;;;;5018535;28;20036;-71
2022/04/18 09:42:22;;;;;;;4.85;3.17;;;;;;;;;;5021519;28;20120;-71
2022/04/18 09:44:48;;;;;;;10.57;3.35;;;;;;;;;;5021194;28;20020;-71
2022/04/18 09:47:19;;;;;;;6.90;3.40;;;;;;;;;;5022266;28;20040;-71
2022/04/18 09:49:46;;;;;;;5.57;2.97;;;;;;;;;;5022018;28;20730;-72
2022/04/18 09:52:15;;;;;;;5.85;2.80;;;;;;;;;;5021927;28;20033;-71
2022/04/18 09:54:44;;;;;;;4.47;2.83;;;;;;;;;;5020386;28;20034;-72
2022/04/18 09:57:10;;;;;;;3.67;2.63;;;;;;;;;;5013343;28;20507;-72
2022/04/18 09:59:37;;;;;;;5.82;2.85;;;;;;;;;;5000511;28;20026;-72
2022/04/18 10:02:04;;;;;;;4.95;2.80;;;;;;;;;;5002057;28;20486;-72
2022/04/18 10:04:30;;;;;;;3.22;2.67;;;;;;;;;;5001936;28;20117;-71
2022/04/18 10:06:57;;;;;;;8.38;3.33;;;;;;;;;;5002243;28;20656;-71
2022/04/18 10:09:24;;;;;;;6.03;2.55;;;;;;;;;;5002485;28;20029;-71
2022/04/18 10:11:52;;;;;;;7.25;3.05;;;;;;;;;;5002002;28;20034;-75
2022/04/18 10:14:18;;;;;;;4.03;3.00;;;;;;;;;;5000911;28;20112;-71
2022/04/18 10:16:45;;;;;;;10.15;3.90;;;;;;;;;;5001538;28;20054;-72
2022/04/18 10:19:31;;;;;;;9.20;3.38;;;;;;;;;;5001592;28;20034;-72
2022/04/18 10:22:05;;;;;;;9.35;3.70;;;;;;;;;;4969842;28;20889;-74
2022/04/18 10:24:57;;;;;;;7.00;3.40;;;;;;;;;;5003677;28;20026;-72
2022/04/18 10:27:37;;;;;;;7.75;3.47;;;;;;;;;;5003944;28;20036;-72
2022/04/18 10:30:03;;;;;;;8.60;2.70;;;;;;;;;;5003525;28;20034;-71
2022/04/18 10:32:30;;;;;;;6.18;3.47;;;;;;;;;;5014458;28;20033;-72
2022/04/18 10:34:57;;;;;;;8.63;3.88;;;;;;;;;;5018511;28;20029;-72
2022/04/18 10:37:24;;;;;;;6.72;3.00;;;;;;;;;;5021520;28;20046;-72
2022/04/18 10:40:01;;;;;;;6.22;4.35;;;;;;;;;;5010827;28;20104;-71
2022/04/18 10:42:32;;;;;;;6.55;3.45;;;;;;;;;;5021316;28;20102;-72
2022/04/18 10:44:59;;;;;;;7.47;4.70;;;;;;;;;;5021084;28;20036;-71
2022/04/18 10:47:26;;;;;;;6.72;4.53;;;;;;;;;;5019693;28;20036;-71
2022/04/18 10:50:10;;;;;;;6.45;4.15;;;;;;;;;;5020910;28;20100;-71
2022/04/18 10:52:37;;;;;;;5.95;3.72;;;;;;;;;;5020365;28;20022;-73
2022/04/18 10:55:03;;;;;;;15.43;7.22;;;;;;;;;;5017477;28;20539;-71
2022/04/18 10:57:30;;;;;;;10.45;7.93;;;;;;;;;;5017420;28;20030;-72
2022/04/18 10:59:57;;;;;;;13.15;6.28;;;;;;;;;;5018942;28;20076;-71
2022/04/18 11:02:42;;;;;;;6.30;4.45;;;;;;;;;;5020857;28;20061;-71
2022/04/18 11:05:08;;;;;;;6.97;4.00;;;;;;;;;;5018723;28;20299;-72
2022/04/18 11:07:38;;;;;;;9.50;6.07;;;;;;;;;;5020835;28;20670;-71
2022/04/18 11:10:18;;;;;;;10.65;5.85;;;;;;;;;;5019501;28;20083;-71
2022/04/18 11:12:44;;;;;;;8.55;4.50;;;;;;;;;;5020240;28;20041;-75
2022/04/18 11:15:10;;;;;;;10.30;4.78;;;;;;;;;;5020166;28;20505;-72
2022/04/18 11:17:40;;;;;;;11.38;5.30;;;;;;;;;;5019461;28;20497;-73
2022/04/18 11:20:29;;;;;;;7.70;5.65;;;;;;;;;;5006162;28;20756;-70
2022/04/18 11:23:13;;;;;;;12.57;5.55;;;;;;;;;;5020251;28;20639;-75
2022/04/18 11:25:58;;;;;;;7.88;5.43;;;;;;;;;;5010088;28;20037;-71
2022/04/18 11:28:31;;;;;;;10.60;5.45;;;;;;;;;;5013188;28;20030;-71
2022/04/18 11:30:57;;;;;;;11.15;5.82;;;;;;;;;;5010851;28;20100;-71
2022/04/18 11:33:23;;;;;;;10.13;5.15;;;;;;;;;;5010707;28;20102;-71
2022/04/18 11:35:50;;;;;;;10.75;5.95;;;;;;;;;;5005901;28;20028;-70
2022/04/18 11:38:16;;;;;;;7.80;4.80;;;;;;;;;;5000117;28;20084;-75
2022/04/18 11:40:44;;;;;;;10.50;5.90;;;;;;;;;;5000995;28;20028;-72
2022/04/18 11:43:13;;;;;;;9.88;6.00;;;;;;;;;;5000168;28;20444;-72
2022/04/18 11:45:39;;;;;;;10.20;5.35;;;;;;;;;;5000102;28;20073;-72
2022/04/18 11:48:06;;;;;;;9.73;5.35;;;;;;;;;;4998526;28;20111;-71
2022/04/18 11:50:36;;;;;;;10.15;6.65;;;;;;;;;;4998856;28;20041;-72
2022/04/18 11:53:06;;;;;;;9.43;6.20;;;;;;;;;;5000488;28;20576;-72
2022/04/18 11:55:41;;;;;;;12.98;7.55;;;;;;;;;;5000447;28;20037;-72
2022/04/18 11:58:09;;;;;;;9.20;6.90;;;;;;;;;;5006186;28;20029;-71
2022/04/18 12:08:50;;;;;;;11.52;6.97;;;;;;;;;;5000155;28;20141;-71
2022/04/18 12:11:16;;;;;;;18.92;11.38;;;;;;;;;;5001826;28;20041;-72
2022/04/18 12:13:43;;;;;;;12.35;8.27;;;;;;;;;;5009931;28;20017;-72
2022/04/18 12:16:09;;;;;;;17.67;9.02;;;;;;;;;;5018429;28;20057;-71
2022/04/18 12:18:36;;;;;;;17.13;10.68;;;;;;;;;;5018341;28;20032;-72
2022/04/18 12:21:02;;;;;;;22.88;12.85;;;;;;;;;;5019197;28;20034;-72
2022/04/18 12:23:28;;;;;;;15.50;10.50;;;;;;;;;;5020008;28;20038;-71
2022/04/18 12:25:55;;;;;;;8.52;6.15;;;;;;;;;;5019562;28;20018;-71
2022/04/18 12:28:28;;;;;;;11.23;6.40;;;;;;;;;;5009078;28;20057;-74
2022/04/18 12:30:55;;;;;;;8.32;6.85;;;;;;;;;;5019848;28;20090;-71
2022/04/18 12:33:22;;;;;;;10.45;7.57;;;;;;;;;;5030027;28;20032;-72
2022/04/18 12:35:48;;;;;;;13.48;6.07;;;;;;;;;;5037478;28;20041;-71
2022/04/18 12:38:16;;;;;;;10.43;6.53;;;;;;;;;;5018664;28;20018;-71
2022/04/18 12:40:43;;;;;;;13.40;8.23;;;;;;;;;;5020305;28;20481;-71
2022/04/18 12:43:10;;;;;;;9.15;5.30;;;;;;;;;;5028545;28;20037;-71
2022/04/18 12:45:42;;;;;;;8.20;4.63;;;;;;;;;;5018737;28;20583;-71
2022/04/18 12:48:08;;;;;;;13.02;4.93;;;;;;;;;;5034689;28;20040;-71
2022/04/18 12:50:35;;;;;;;7.82;4.25;;;;;;;;;;5036896;28;20029;-72
2022/04/18 12:53:01;;;;;;;9.98;5.05;;;;;;;;;;5022120;28;20029;-71
2022/04/18 12:55:31;;;;;;;11.90;5.45;;;;;;;;;;5018666;28;20036;-71
2022/04/18 12:57:57;;;;;;;8.32;4.55;;;;;;;;;;5017034;28;20030;-73
2022/04/18 13:00:24;;;;;;;10.40;5.22;;;;;;;;;;5033867;28;20025;-73
2022/04/18 13:03:16;;;;;;;9.02;4.93;;;;;;;;;;5012117;28;20037;-73
2022/04/18 13:05:42;;;;;;;;;;;;;;;;;;4996526;28;20088;-72
2022/04/18 13:08:09;;;;;;;7.68;5.45;;;;;;;;;;5007487;28;20449;-71
2022/04/18 13:10:36;;;;;;;8.68;4.47;;;;;;;;;;5019389;28;20029;-71
2022/04/18 13:13:04;;;;;;;10.75;5.35;;;;;;;;;;5017487;28;20504;-72
2022/04/18 13:15:30;;;;;;;7.38;3.80;;;;;;;;;;5020151;28;20128;-75
2022/04/18 13:17:59;;;;;;;6.28;4.55;;;;;;;;;;5022580;28;20694;-74
2022/04/18 13:20:25;;;;;;;10.35;4.90;;;;;;;;;;5023163;28;20042;-71
2022/04/18 13:22:51;;;;;;;7.28;3.60;;;;;;;;;;5021587;28;20121;-71
2022/04/18 13:25:18;;;;;;;8.43;4.95;;;;;;;;;;5023933;28;20021;-72
2022/04/18 13:27:45;;;;;;;9.35;5.30;;;;;;;;;;5008127;28;20359;-72
2022/04/18 13:30:11;;;;;;;10.25;4.88;;;;;;;;;;5023512;28;20044;-71
2022/04/18 13:32:37;;;;;;;13.75;8.27;;;;;;;;;;5022319;28;20045;-72
2022/04/18 13:35:04;;;;;;;11.90;7.70;;;;;;;;;;5022308;28;20339;-71
2022/04/18 13:37:30;;;;;;;11.65;5.97;;;;;;;;;;5038450;28;20123;-73
2022/04/18 13:39:56;;;;;;;10.43;6.63;;;;;;;;;;5022517;28;20020;-71
2022/04/18 13:42:22;;;;;;;7.97;3.92;;;;;;;;;;5020613;28;20072;-71
2022/04/18 13:44:48;;;;;;;7.65;3.83;;;;;;;;;;5022530;28;20394;-72
2022/04/18 13:47:14;;;;;;;5.50;3.70;;;;;;;;;;5022111;28;20419;-72
2022/04/18 13:49:40;;;;;;;10.25;4.93;;;;;;;;;;5022608;28;20513;-72
2022/04/18 13:52:10;;;;;;;5.97;3.60;;;;;;;;;;5020442;28;20071;-73
2022/04/18 13:54:39;;;;;;;8.43;3.60;;;;;;;;;;5022330;28;20501;-72
2022/04/18 13:57:06;;;;;;;10.18;5.30;;;;;;;;;;5019770;28;20108;-72
2022/04/18 13:59:32;;;;;;;5.85;3.50;;;;;;;;;;5022430;28;20029;-72
2022/04/18 14:01:59;;;;;;;8.38;5.22;;;;;;;;;;5011742;28;20108;-73
2022/04/18 14:04:25;;;;;;;8.32;4.40;;;;;;;;;;5002038;28;20034;-72
2022/04/18 14:06:51;;;;;;;6.88;4.50;;;;;;;;;;5001326;28;20125;-72
2022/04/18 14:09:18;;;;;;;9.32;4.20;;;;;;;;;;5017538;28;20450;-71
2022/04/18 14:11:44;;;;;;;9.43;5.00;;;;;;;;;;5022301;28;20029;-71
2022/04/18 14:14:10;;;;;;;5.40;3.35;;;;;;;;;;5021768;28;20958;-72
2022/04/18 14:22:06;;;;;;;5.85;2.97;;;;;;;;;;5020185;28;20100;-71
2022/04/18 14:24:32;;;;;;;5.20;2.88;;;;;;;;;;5019521;28;20444;-71
2022/04/18 14:26:58;;;;;;;6.57;2.90;;;;;;;;;;5009908;28;20087;-71
2022/04/18 14:29:25;;;;;;;4.35;3.13;;;;;;;;;;5001897;28;20025;-75
2022/04/18 14:31:51;;;;;;;11.10;3.78;;;;;;;;;;5008027;28;20784;-73
2022/04/18 14:34:17;;;;;;;6.05;3.03;;;;;;;;;;5021407;28;20025;-73
2022/04/18 14:36:43;;;;;;;8.43;3.35;;;;;;;;;;5036179;28;20078;-71
2022/04/18 14:39:09;;;;;;;7.07;2.83;;;;;;;;;;5016939;28;20021;-75
2022/04/18 14:41:36;;;;;;;5.18;2.47;;;;;;;;;;5006337;28;20045;-71
2022/04/18 14:44:02;;;;;;;8.15;2.50;;;;;;;;;;5019444;28;20556;-71
2022/04/18 14:46:29;;;;;;;6.88;2.60;;;;;;;;;;5021521;28;20064;-71
2022/04/18 14:48:55;;;;;;;6.13;2.80;;;;;;;;;;5021985;28;20057;-71
2022/04/18 14:51:24;;;;;;;10.40;3.25;;;;;;;;;;5021317;28;20728;-72
2022/04/18 14:53:52;;;;;;;4.78;2.50;;;;;;;;;;5009970;28;20034;-71
2022/04/18 14:56:18;;;;;;;6.35;2.92;;;;;;;;;;4999291;28;20029;-72
2022/04/18 14:58:44;;;;;;;9.63;2.95;;;;;;;;;;5001339;28;20041;-72
2022/04/18 15:01:10;;;;;;;6.50;2.63;;;;;;;;;;5001329;28;20022;-71
2022/04/18 15:03:36;;;;;;;4.38;2.50;;;;;;;;;;5000978;28;20095;-72
2022/04/18 15:06:02;;;;;;;6.22;4.05;;;;;;;;;;5000508;28;20466;-72
2022/04/18 15:08:29;;;;;;;6.03;3.30;;;;;;;;;;4998514;28;20618;-72
2022/04/18 15:10:55;;;;;;;7.50;3.65;;;;;;;;;;5002962;28;20022;-76
2022/04/18 15:13:21;;;;;;;8.13;3.53;;;;;;;;;;5001082;28;20482;-75
2022/04/18 15:15:47;;;;;;;7.43;2.95;;;;;;;;;;5000780;28;20096;-71
2022/04/18 15:18:13;;;;;;;11.65;3.63;;;;;;;;;;5004626;28;20025;-71
2022/04/18 15:20:41;;;;;;;6.05;2.85;;;;;;;;;;5021034;28;20021;-73